Time;durP1;ratioP1;P1;durP2;ratioP2;P2;SDS_P1;SDS_P2;PMS_P1;PMS_P2;Temp;Humidity;BMP_temperature;BMP_pressure;BME280_temperature;BME280_humidity;BME280_pressure;Samples;Min_cycle;Max_cycle;Signal;HPM_P1;HPM_P2
2022/01/13 00:01:10;;;;;;;48.23;21.33;;;;;;;;;;4994797;28;20210;-50
2022/01/13 00:03:36;;;;;;;44.28;20.05;;;;;;;;;;4994504;28;20970;-50
2022/01/13 00:06:02;;;;;;;46.97;19.75;;;;;;;;;;4993369;28;20260;-51
2022/01/13 00:08:28;;;;;;;49.20;19.73;;;;;;;;;;4994089;28;20247;-51
2022/01/13 00:10:54;;;;;;;45.30;20.40;;;;;;;;;;4994724;28;20208;-51
2022/01/13 00:13:24;;;;;;;50.03;20.60;;;;;;;;;;4994684;28;20405;-51
2022/01/13 00:16:22;;;;;;;49.28;20.60;;;;;;;;;;4994486;28;20400;-51
2022/01/13 00:18:40;;;;;;;42.70;20.13;;;;;;;;;;4994517;28;20790;-49
2022/01/13 00:23:53;;;;;;;46.80;19.85;;;;;;;;;;4993972;28;20224;-50
2022/01/13 00:26:25;;;;;;;51.40;22.33;;;;;;;;;;4995397;28;20173;-49
2022/01/13 00:28:52;;;;;;;50.38;20.00;;;;;;;;;;4994488;28;20192;-49
2022/01/13 00:31:29;;;;;;;58.20;21.55;;;;;;;;;;4994441;28;20663;-50
2022/01/13 00:33:57;;;;;;;43.47;19.58;;;;;;;;;;4994200;28;20174;-49
2022/01/13 00:36:24;;;;;;;47.42;21.80;;;;;;;;;;4994470;28;20176;-49
2022/01/13 00:38:50;;;;;;;57.73;21.37;;;;;;;;;;4957128;28;1086336;-50
2022/01/13 00:41:16;;;;;;;48.35;20.40;;;;;;;;;;4996088;28;20181;-50
2022/01/13 00:43:46;;;;;;;43.90;19.80;;;;;;;;;;4997902;28;20188;-50
2022/01/13 00:46:19;;;;;;;57.72;22.75;;;;;;;;;;4995464;28;20908;-49
2022/01/13 00:48:45;;;;;;;51.08;19.98;;;;;;;;;;4995418;28;20200;-49
2022/01/13 00:51:11;;;;;;;57.00;23.07;;;;;;;;;;4995384;28;20627;-49
2022/01/13 00:53:37;;;;;;;52.83;21.80;;;;;;;;;;4995023;28;20422;-49
2022/01/13 00:56:03;;;;;;;55.23;22.50;;;;;;;;;;4995259;28;20435;-49
2022/01/13 00:58:30;;;;;;;44.25;20.40;;;;;;;;;;4995134;28;20432;-49
2022/01/13 01:00:57;;;;;;;62.28;23.83;;;;;;;;;;4995427;28;20552;-51
2022/01/13 01:03:23;;;;;;;52.92;22.65;;;;;;;;;;4994745;28;20169;-49
2022/01/13 01:05:49;;;;;;;43.45;21.23;;;;;;;;;;4994785;28;20212;-50
2022/01/13 01:08:15;;;;;;;56.60;23.70;;;;;;;;;;4993967;28;20197;-49
2022/01/13 01:10:41;;;;;;;54.88;20.58;;;;;;;;;;4994999;28;20173;-49
2022/01/13 01:13:14;;;;;;;62.15;24.20;;;;;;;;;;4994893;28;20625;-50
2022/01/13 01:15:44;;;;;;;49.35;21.77;;;;;;;;;;4994737;28;20660;-50
2022/01/13 01:21:17;;;;;;;60.13;23.30;;;;;;;;;;4994853;28;20184;-50
2022/01/13 01:24:08;;;;;;;58.78;23.75;;;;;;;;;;4994268;28;20216;-49
2022/01/13 01:29:05;;;;;;;51.08;22.15;;;;;;;;;;4994737;28;20679;-49
2022/01/13 01:31:34;;;;;;;47.15;21.88;;;;;;;;;;4994682;28;20200;-50
2022/01/13 01:36:36;;;;;;;59.30;23.80;;;;;;;;;;4994732;28;20187;-51
2022/01/13 01:39:03;;;;;;;57.67;23.38;;;;;;;;;;4993405;28;20208;-49
2022/01/13 01:41:29;;;;;;;55.83;22.38;;;;;;;;;;4994406;28;20169;-50
2022/01/13 01:44:01;;;;;;;50.23;21.17;;;;;;;;;;4994030;28;20204;-49
2022/01/13 01:46:27;;;;;;;65.65;24.00;;;;;;;;;;4994265;28;20523;-51
2022/01/13 01:48:53;;;;;;;61.20;24.27;;;;;;;;;;4994223;28;20250;-47
2022/01/13 01:51:19;;;;;;;59.22;22.13;;;;;;;;;;4994207;28;20400;-49
2022/01/13 01:53:45;;;;;;;60.20;24.17;;;;;;;;;;4993928;28;20205;-47
2022/01/13 01:56:11;;;;;;;50.33;21.02;;;;;;;;;;4994148;28;20176;-49
2022/01/13 01:58:39;;;;;;;62.65;20.85;;;;;;;;;;4994291;28;20603;-49
2022/01/13 02:01:05;;;;;;;51.97;22.92;;;;;;;;;;4993691;28;20293;-47
2022/01/13 02:03:31;;;;;;;54.87;22.97;;;;;;;;;;4993333;28;20188;-47
2022/01/13 02:05:57;;;;;;;55.53;20.40;;;;;;;;;;4993402;28;20416;-48
2022/01/13 02:08:23;;;;;;;65.93;23.20;;;;;;;;;;4993244;28;20460;-48
2022/01/13 02:10:49;;;;;;;60.08;22.67;;;;;;;;;;4993894;28;20355;-48
2022/01/13 02:13:21;;;;;;;50.28;21.98;;;;;;;;;;4993781;28;20173;-47
2022/01/13 02:16:00;;;;;;;46.13;20.65;;;;;;;;;;4992677;28;20170;-48
2022/01/13 02:18:28;;;;;;;51.50;22.10;;;;;;;;;;4993725;28;20663;-47
2022/01/13 02:20:54;;;;;;;65.20;22.85;;;;;;;;;;4993660;28;20169;-47
2022/01/13 02:23:37;;;;;;;50.42;20.20;;;;;;;;;;4993552;28;20177;-47
2022/01/13 02:26:04;;;;;;;65.95;22.60;;;;;;;;;;4993485;28;20187;-47
2022/01/13 02:28:30;;;;;;;65.95;24.48;;;;;;;;;;4993418;28;20271;-48
2022/01/13 02:30:56;;;;;;;63.80;21.70;;;;;;;;;;4993491;28;20168;-47
2022/01/13 02:33:22;;;;;;;61.58;22.73;;;;;;;;;;4993369;28;20161;-48
2022/01/13 02:35:48;;;;;;;57.95;22.85;;;;;;;;;;4993027;28;20534;-48
2022/01/13 02:38:14;;;;;;;60.43;22.60;;;;;;;;;;4992196;28;20177;-49
2022/01/13 02:40:41;;;;;;;62.42;23.55;;;;;;;;;;4993282;28;20880;-49
2022/01/13 02:43:07;;;;;;;51.92;22.02;;;;;;;;;;4993252;28;20259;-48
2022/01/13 02:45:37;;;;;;;65.63;23.77;;;;;;;;;;4992873;28;20300;-48
2022/01/13 02:48:26;;;;;;;60.80;20.40;;;;;;;;;;4993184;28;20211;-50
2022/01/13 02:50:53;;;;;;;73.22;24.10;;;;;;;;;;4993130;28;20176;-47
2022/01/13 02:53:19;;;;;;;51.67;21.55;;;;;;;;;;4993051;28;20169;-47
2022/01/13 02:55:45;;;;;;;61.50;23.67;;;;;;;;;;4992821;28;20268;-47
2022/01/13 02:58:15;;;;;;;68.63;24.20;;;;;;;;;;4992882;28;20264;-47
2022/01/13 03:00:41;;;;;;;62.97;23.05;;;;;;;;;;4992960;28;20486;-47
2022/01/13 03:03:07;;;;;;;69.00;25.02;;;;;;;;;;4992929;28;20176;-47
2022/01/13 03:05:37;;;;;;;71.57;26.05;;;;;;;;;;4992421;28;20193;-47
2022/01/13 03:08:03;;;;;;;67.57;23.80;;;;;;;;;;4991919;28;20587;-47
2022/01/13 03:10:29;;;;;;;62.28;25.13;;;;;;;;;;4992823;28;20185;-48
2022/01/13 03:12:57;;;;;;;65.50;24.52;;;;;;;;;;4992781;28;20251;-48
2022/01/13 03:15:23;;;;;;;71.20;26.85;;;;;;;;;;4992472;28;20171;-47
2022/01/13 03:17:49;;;;;;;69.63;25.70;;;;;;;;;;4992651;28;20173;-48
2022/01/13 03:20:15;;;;;;;66.88;23.75;;;;;;;;;;4992489;28;20462;-49
2022/01/13 03:22:41;;;;;;;59.43;24.57;;;;;;;;;;4992666;28;20565;-47
2022/01/13 03:25:09;;;;;;;63.57;24.93;;;;;;;;;;4992270;28;20464;-47
2022/01/13 03:27:35;;;;;;;66.18;26.42;;;;;;;;;;4992524;28;20411;-48
2022/01/13 03:30:06;;;;;;;63.17;24.30;;;;;;;;;;4992598;28;20187;-47
2022/01/13 03:32:32;;;;;;;66.88;24.63;;;;;;;;;;4992476;28;20172;-47
2022/01/13 03:34:59;;;;;;;69.82;25.98;;;;;;;;;;4992157;28;20205;-47
2022/01/13 03:37:24;;;;;;;71.22;25.55;;;;;;;;;;4990441;28;20648;-48
2022/01/13 03:39:50;;;;;;;65.63;23.37;;;;;;;;;;4992302;28;20219;-48
2022/01/13 03:42:17;;;;;;;61.20;25.33;;;;;;;;;;4992427;28;20819;-47
2022/01/13 03:44:42;;;;;;;70.90;26.45;;;;;;;;;;4992060;28;20188;-48
2022/01/13 03:47:10;;;;;;;67.40;25.70;;;;;;;;;;4992283;28;20188;-49
2022/01/13 03:49:36;;;;;;;72.55;26.85;;;;;;;;;;4992255;28;20515;-47
2022/01/13 03:52:14;;;;;;;74.50;25.67;;;;;;;;;;4992432;28;20196;-48
2022/01/13 03:54:43;;;;;;;78.35;26.13;;;;;;;;;;4992145;28;20659;-47
2022/01/13 03:57:42;;;;;;;71.68;24.40;;;;;;;;;;4992343;28;20255;-47
2022/01/13 04:00:27;;;;;;;57.70;23.60;;;;;;;;;;4992187;28;20196;-48
2022/01/13 04:02:53;;;;;;;56.60;24.10;;;;;;;;;;4992288;28;20191;-47
2022/01/13 04:05:19;;;;;;;69.13;23.40;;;;;;;;;;4991844;28;20619;-48
2022/01/13 04:07:44;;;;;;;71.30;27.83;;;;;;;;;;4990764;28;20420;-48
2022/01/13 04:10:29;;;;;;;63.83;24.97;;;;;;;;;;4992079;28;20423;-48
2022/01/13 04:12:56;;;;;;;69.57;26.00;;;;;;;;;;4992250;28;20431;-47
2022/01/13 04:15:24;;;;;;;76.82;24.90;;;;;;;;;;4991869;28;20173;-48
2022/01/13 04:17:50;;;;;;;66.32;22.48;;;;;;;;;;4992183;28;20173;-47
2022/01/13 04:20:16;;;;;;;67.95;24.75;;;;;;;;;;4991962;28;20195;-47
2022/01/13 04:22:42;;;;;;;71.75;24.95;;;;;;;;;;4992027;28;20220;-47
2022/01/13 04:25:08;;;;;;;66.80;24.23;;;;;;;;;;4991711;28;20323;-47
2022/01/13 04:27:38;;;;;;;62.17;24.73;;;;;;;;;;4992105;28;20257;-47
2022/01/13 04:30:33;;;;;;;68.07;25.58;;;;;;;;;;4992005;28;20611;-48
2022/01/13 04:32:57;;;;;;;60.58;24.55;;;;;;;;;;4991787;28;20185;-48
2022/01/13 04:35:23;;;;;;;52.87;20.83;;;;;;;;;;4991746;28;20173;-47
2022/01/13 04:37:49;;;;;;;50.93;22.10;;;;;;;;;;4990652;28;20447;-47
2022/01/13 04:40:15;;;;;;;56.13;24.20;;;;;;;;;;4995370;28;20447;-47
2022/01/13 04:42:43;;;;;;;69.72;24.92;;;;;;;;;;4995517;28;20841;-47
2022/01/13 04:45:09;;;;;;;56.10;21.02;;;;;;;;;;4995086;28;20203;-48
2022/01/13 04:47:35;;;;;;;54.28;21.42;;;;;;;;;;4995310;28;20655;-48
2022/01/13 04:50:01;;;;;;;51.83;21.00;;;;;;;;;;4995326;28;20259;-48
2022/01/13 04:52:27;;;;;;;58.85;22.52;;;;;;;;;;4995292;28;20466;-47
2022/01/13 04:54:53;;;;;;;55.13;20.60;;;;;;;;;;4995655;28;20165;-47
2022/01/13 04:57:19;;;;;;;57.30;24.53;;;;;;;;;;4993702;28;20189;-48
2022/01/13 04:59:45;;;;;;;53.80;21.80;;;;;;;;;;4994429;28;20455;-47
2022/01/13 05:02:14;;;;;;;64.55;21.35;;;;;;;;;;4994975;28;20459;-49
2022/01/13 05:04:40;;;;;;;51.30;22.50;;;;;;;;;;4994751;28;20230;-49
2022/01/13 05:07:06;;;;;;;55.97;24.45;;;;;;;;;;4994128;28;20161;-49
2022/01/13 05:09:32;;;;;;;53.50;25.70;;;;;;;;;;4994935;28;20776;-47
2022/01/13 05:12:01;;;;;;;56.10;22.93;;;;;;;;;;4994936;28;20410;-48
2022/01/13 05:14:27;;;;;;;58.58;23.35;;;;;;;;;;4994703;28;20968;-47
2022/01/13 05:17:04;;;;;;;50.40;24.00;;;;;;;;;;4994888;28;20223;-48
2022/01/13 05:19:38;;;;;;;56.53;21.70;;;;;;;;;;4994805;28;20216;-47
2022/01/13 05:24:36;;;;;;;50.45;23.10;;;;;;;;;;4993647;28;20692;-47
2022/01/13 05:27:03;;;;;;;58.03;21.87;;;;;;;;;;4994626;28;20197;-47
2022/01/13 05:29:29;;;;;;;58.20;22.70;;;;;;;;;;4994534;28;20424;-47
2022/01/13 05:31:55;;;;;;;59.45;23.73;;;;;;;;;;4994596;28;20193;-47
2022/01/13 05:34:21;;;;;;;62.47;24.15;;;;;;;;;;4994450;28;20615;-47
2022/01/13 05:36:47;;;;;;;66.77;22.37;;;;;;;;;;4994495;28;20209;-47
2022/01/13 05:39:13;;;;;;;56.60;22.73;;;;;;;;;;4994268;28;20455;-46
2022/01/13 05:41:39;;;;;;;63.53;22.10;;;;;;;;;;4994412;28;20404;-48
2022/01/13 05:44:05;;;;;;;54.42;23.05;;;;;;;;;;4992370;28;20263;-48
2022/01/13 05:46:31;;;;;;;60.45;22.85;;;;;;;;;;4994318;28;20633;-47
2022/01/13 05:48:57;;;;;;;55.30;22.40;;;;;;;;;;4993746;28;20665;-47
2022/01/13 05:51:23;;;;;;;49.93;19.90;;;;;;;;;;4993642;28;20181;-50
2022/01/13 05:53:49;;;;;;;53.05;20.90;;;;;;;;;;4993825;28;20408;-49
2022/01/13 05:56:16;;;;;;;57.63;23.77;;;;;;;;;;4994017;28;20545;-48
2022/01/13 05:58:42;;;;;;;48.13;22.90;;;;;;;;;;4994051;28;20180;-48
2022/01/13 06:01:08;;;;;;;53.33;21.13;;;;;;;;;;4994044;28;20220;-48
2022/01/13 06:03:34;;;;;;;67.70;25.83;;;;;;;;;;4993686;28;20173;-49
2022/01/13 06:06:00;;;;;;;55.28;21.50;;;;;;;;;;4993829;28;20460;-48
2022/01/13 06:08:26;;;;;;;57.00;22.90;;;;;;;;;;4993857;28;20668;-49
2022/01/13 06:10:52;;;;;;;64.25;23.27;;;;;;;;;;4992304;28;20420;-49
2022/01/13 06:13:18;;;;;;;69.45;23.15;;;;;;;;;;4993803;28;20384;-47
2022/01/13 06:15:44;;;;;;;76.37;27.60;;;;;;;;;;4993671;28;20590;-47
2022/01/13 06:18:11;;;;;;;56.93;22.40;;;;;;;;;;4993706;28;20407;-47
2022/01/13 06:20:39;;;;;;;62.88;23.58;;;;;;;;;;4993660;28;20486;-47
2022/01/13 06:23:05;;;;;;;63.03;24.90;;;;;;;;;;4993689;28;20165;-47
2022/01/13 06:25:31;;;;;;;71.97;26.58;;;;;;;;;;4993157;28;20220;-49
2022/01/13 06:27:57;;;;;;;55.73;24.00;;;;;;;;;;4993576;28;20250;-49
2022/01/13 06:30:23;;;;;;;74.17;24.43;;;;;;;;;;4996591;28;20578;-47
2022/01/13 06:32:49;;;;;;;76.20;29.27;;;;;;;;;;5008514;28;20419;-47
2022/01/13 06:35:15;;;;;;;66.77;25.13;;;;;;;;;;4993106;28;20980;-47
2022/01/13 06:37:42;;;;;;;82.80;27.77;;;;;;;;;;4993348;28;20487;-47
2022/01/13 06:40:08;;;;;;;85.25;28.30;;;;;;;;;;4992147;28;20212;-47
2022/01/13 06:42:34;;;;;;;77.93;27.52;;;;;;;;;;4991966;28;20210;-49
2022/01/13 06:45:00;;;;;;;61.90;25.27;;;;;;;;;;4992849;28;20622;-47
2022/01/13 06:47:26;;;;;;;68.50;25.90;;;;;;;;;;4993199;28;20400;-47
2022/01/13 06:49:52;;;;;;;73.30;27.30;;;;;;;;;;4993065;28;20653;-47
2022/01/13 06:52:18;;;;;;;69.53;27.83;;;;;;;;;;4993132;28;20172;-47
2022/01/13 06:54:44;;;;;;;85.95;27.13;;;;;;;;;;4992863;28;20403;-47
2022/01/13 06:57:10;;;;;;;71.00;25.17;;;;;;;;;;4992691;28;20228;-47
2022/01/13 06:59:37;;;;;;;69.63;26.77;;;;;;;;;;4992637;28;20197;-47
2022/01/13 07:02:03;;;;;;;62.35;24.35;;;;;;;;;;4992622;28;20413;-47
2022/01/13 07:04:29;;;;;;;78.18;29.25;;;;;;;;;;4992527;28;20269;-47
2022/01/13 07:06:55;;;;;;;78.35;28.75;;;;;;;;;;4991117;28;20177;-47
2022/01/13 07:09:22;;;;;;;73.47;27.55;;;;;;;;;;4992674;28;20193;-47
2022/01/13 07:11:48;;;;;;;72.07;25.52;;;;;;;;;;4992750;28;20169;-47
2022/01/13 07:14:14;;;;;;;77.50;25.50;;;;;;;;;;4992532;28;20197;-49
2022/01/13 07:16:41;;;;;;;55.40;23.23;;;;;;;;;;4992689;28;20172;-47
2022/01/13 07:19:08;;;;;;;71.15;22.92;;;;;;;;;;4992663;28;20197;-47
2022/01/13 07:21:34;;;;;;;57.25;22.92;;;;;;;;;;4992728;28;20204;-47
2022/01/13 07:24:00;;;;;;;59.55;22.20;;;;;;;;;;4992288;28;20641;-47
2022/01/13 07:26:27;;;;;;;76.57;26.35;;;;;;;;;;4992562;28;20600;-47
2022/01/13 07:28:52;;;;;;;68.15;23.95;;;;;;;;;;4992451;28;20189;-47
2022/01/13 07:31:19;;;;;;;84.10;27.70;;;;;;;;;;4992528;28;20276;-47
2022/01/13 07:33:45;;;;;;;72.85;25.48;;;;;;;;;;4992496;28;20843;-47
2022/01/13 07:36:11;;;;;;;65.77;23.00;;;;;;;;;;4991486;28;20252;-47
2022/01/13 07:38:37;;;;;;;68.57;25.95;;;;;;;;;;4992229;28;20449;-47
2022/01/13 07:41:03;;;;;;;63.23;22.13;;;;;;;;;;4992441;28;20251;-47
2022/01/13 07:43:30;;;;;;;67.35;25.30;;;;;;;;;;4992139;28;20459;-47
2022/01/13 07:45:56;;;;;;;66.40;24.63;;;;;;;;;;4992168;28;20613;-48
2022/01/13 07:48:24;;;;;;;55.80;22.87;;;;;;;;;;4992275;28;20171;-49
2022/01/13 07:50:50;;;;;;;59.25;23.75;;;;;;;;;;4992369;28;20422;-47
2022/01/13 07:53:16;;;;;;;66.20;24.20;;;;;;;;;;4992375;28;20629;-47
2022/01/13 07:55:42;;;;;;;66.87;24.47;;;;;;;;;;4991951;28;20412;-47
2022/01/13 07:58:08;;;;;;;56.58;23.05;;;;;;;;;;4992321;28;20416;-47
2022/01/13 08:00:34;;;;;;;59.37;23.90;;;;;;;;;;4992188;28;20176;-46
2022/01/13 08:03:00;;;;;;;52.83;23.37;;;;;;;;;;4992212;28;20407;-48
2022/01/13 08:05:26;;;;;;;62.10;26.30;;;;;;;;;;4991863;28;20447;-47
2022/01/13 08:10:26;;;;;;;64.47;25.25;;;;;;;;;;4988458;28;20198;-50
2022/01/13 08:12:52;;;;;;;63.67;25.45;;;;;;;;;;4992484;28;20200;-50
2022/01/13 08:15:18;;;;;;;67.33;24.43;;;;;;;;;;4995903;28;20622;-50
2022/01/13 08:20:32;;;;;;;72.72;27.52;;;;;;;;;;4976519;28;20448;-50
2022/01/13 08:22:58;;;;;;;62.15;22.77;;;;;;;;;;4978020;28;20177;-50
2022/01/13 08:25:24;;;;;;;60.30;23.35;;;;;;;;;;4976108;28;20540;-49
2022/01/13 08:27:50;;;;;;;65.70;24.65;;;;;;;;;;4976065;28;20614;-49
2022/01/13 08:30:16;;;;;;;61.78;22.30;;;;;;;;;;4976567;28;20232;-49
2022/01/13 08:32:42;;;;;;;70.33;24.93;;;;;;;;;;4976221;28;20209;-49
2022/01/13 08:35:10;;;;;;;72.72;24.45;;;;;;;;;;4975120;28;20523;-48
2022/01/13 08:37:36;;;;;;;59.38;21.13;;;;;;;;;;4976020;28;20172;-49
2022/01/13 08:40:04;;;;;;;59.50;22.45;;;;;;;;;;4974893;28;20186;-49
2022/01/13 08:42:30;;;;;;;66.45;22.35;;;;;;;;;;4975501;28;20182;-49
2022/01/13 08:44:56;;;;;;;57.73;23.47;;;;;;;;;;4977337;28;20539;-49
2022/01/13 08:47:22;;;;;;;55.70;20.80;;;;;;;;;;4983814;28;20423;-51
2022/01/13 08:49:48;;;;;;;59.88;23.10;;;;;;;;;;4979930;28;20436;-51
2022/01/13 08:52:14;;;;;;;54.13;23.30;;;;;;;;;;4979900;28;20551;-50
2022/01/13 08:54:45;;;;;;;57.13;23.03;;;;;;;;;;4979411;28;20409;-50
2022/01/13 08:57:11;;;;;;;51.90;22.35;;;;;;;;;;4979379;28;20419;-49
2022/01/13 08:59:37;;;;;;;59.50;22.65;;;;;;;;;;4978827;28;20284;-50
2022/01/13 09:02:03;;;;;;;50.47;21.30;;;;;;;;;;4977879;28;20643;-51
2022/01/13 09:04:29;;;;;;;55.08;23.38;;;;;;;;;;4978438;28;20556;-50
2022/01/13 09:06:55;;;;;;;56.13;24.60;;;;;;;;;;4978800;28;20190;-51
2022/01/13 09:09:21;;;;;;;51.17;22.40;;;;;;;;;;4977622;28;20425;-51
2022/01/13 09:11:48;;;;;;;53.85;22.52;;;;;;;;;;4978508;28;20195;-51
2022/01/13 09:14:16;;;;;;;63.50;22.80;;;;;;;;;;4978112;28;20173;-50
2022/01/13 09:16:44;;;;;;;45.25;21.92;;;;;;;;;;4978095;28;20256;-49
2022/01/13 09:19:11;;;;;;;51.20;21.45;;;;;;;;;;4976510;28;20628;-50
2022/01/13 09:21:37;;;;;;;42.67;20.88;;;;;;;;;;4976446;28;20170;-51
2022/01/13 09:24:08;;;;;;;51.17;20.50;;;;;;;;;;4975893;28;20183;-51
2022/01/13 09:26:34;;;;;;;53.20;21.30;;;;;;;;;;4974779;28;20437;-52
2022/01/13 09:29:00;;;;;;;49.03;22.80;;;;;;;;;;4974915;28;20426;-51
2022/01/13 09:31:26;;;;;;;48.57;21.93;;;;;;;;;;4976027;28;20454;-52
2022/01/13 09:33:53;;;;;;;62.47;24.20;;;;;;;;;;4976138;28;20397;-52
2022/01/13 09:36:19;;;;;;;43.97;21.27;;;;;;;;;;4976108;28;20400;-51
2022/01/13 09:38:45;;;;;;;44.87;22.10;;;;;;;;;;4975279;28;20853;-52
2022/01/13 09:41:12;;;;;;;47.07;21.77;;;;;;;;;;4976129;28;20436;-52
2022/01/13 09:43:38;;;;;;;46.50;21.77;;;;;;;;;;4976476;28;20765;-52
2022/01/13 09:46:04;;;;;;;47.87;21.80;;;;;;;;;;4977026;28;20463;-53
2022/01/13 09:48:31;;;;;;;46.57;20.80;;;;;;;;;;4976091;28;20512;-53
2022/01/13 09:50:57;;;;;;;43.73;22.43;;;;;;;;;;4976972;28;20488;-53
2022/01/13 09:53:23;;;;;;;44.20;22.17;;;;;;;;;;4977030;28;20405;-53
2022/01/13 09:55:49;;;;;;;45.57;22.63;;;;;;;;;;4976085;28;20524;-52
2022/01/13 09:58:15;;;;;;;48.87;23.40;;;;;;;;;;4976026;28;21101;-52
2022/01/13 10:00:42;;;;;;;47.77;22.00;;;;;;;;;;4976640;28;20437;-52
2022/01/13 10:03:16;;;;;;;46.43;20.77;;;;;;;;;;4976066;28;20886;-52
2022/01/13 10:05:52;;;;;;;56.30;22.37;;;;;;;;;;4975742;28;20538;-51
2022/01/13 10:08:40;;;;;;;40.87;21.37;;;;;;;;;;4973855;28;20438;-51
2022/01/13 10:11:24;;;;;;;48.43;23.37;;;;;;;;;;4976354;28;20427;-53
2022/01/13 10:14:11;;;;;;;50.13;23.83;;;;;;;;;;4976202;28;20401;-53
2022/01/13 10:16:42;;;;;;;44.37;23.10;;;;;;;;;;4976417;28;20416;-52
2022/01/13 10:19:10;;;;;;;43.17;20.57;;;;;;;;;;4975696;28;20799;-53
2022/01/13 10:21:36;;;;;;;54.40;23.70;;;;;;;;;;4976262;28;20406;-53
2022/01/13 10:24:13;;;;;;;44.73;22.53;;;;;;;;;;4975997;28;20856;-52
2022/01/13 10:26:40;;;;;;;38.93;21.00;;;;;;;;;;4973257;28;20503;-52
2022/01/13 10:29:07;;;;;;;45.73;22.00;;;;;;;;;;4975286;28;20437;-51
2022/01/13 10:31:46;;;;;;;45.83;22.87;;;;;;;;;;4975797;28;20401;-53
2022/01/13 10:34:32;;;;;;;44.63;22.37;;;;;;;;;;4975238;28;20406;-53
2022/01/13 10:36:59;;;;;;;48.70;22.80;;;;;;;;;;4974582;28;21151;-50
2022/01/13 10:39:44;;;;;;;48.17;22.47;;;;;;;;;;4974328;28;20421;-52
2022/01/13 10:44:55;;;;;;;42.83;19.23;;;;;;;;;;4974596;28;20602;-52
2022/01/13 10:47:21;;;;;;;45.10;21.47;;;;;;;;;;4974832;28;20419;-52
2022/01/13 10:49:50;;;;;;;40.50;20.70;;;;;;;;;;4973883;28;20430;-52
2022/01/13 10:52:26;;;;;;;45.13;22.00;;;;;;;;;;4974830;28;20411;-52
2022/01/13 10:55:00;;;;;;;43.27;22.30;;;;;;;;;;4974552;28;20407;-52
2022/01/13 10:57:27;;;;;;;47.07;23.40;;;;;;;;;;4973414;28;20440;-51
2022/01/13 10:59:53;;;;;;;37.47;19.50;;;;;;;;;;4973767;28;20426;-53
2022/01/13 11:02:20;;;;;;;37.27;20.30;;;;;;;;;;4974470;28;20445;-52
2022/01/13 11:04:46;;;;;;;38.37;20.00;;;;;;;;;;4974424;28;20505;-53
2022/01/13 11:07:17;;;;;;;44.63;20.37;;;;;;;;;;4974313;28;20955;-53
2022/01/13 11:09:51;;;;;;;37.73;20.37;;;;;;;;;;4973917;28;20502;-53
2022/01/13 11:12:17;;;;;;;38.50;20.70;;;;;;;;;;4974304;28;20428;-53
2022/01/13 11:14:45;;;;;;;34.93;19.53;;;;;;;;;;4974265;28;20768;-53
2022/01/13 11:17:11;;;;;;;34.33;19.53;;;;;;;;;;4974410;28;20440;-53
2022/01/13 11:19:41;;;;;;;39.33;19.10;;;;;;;;;;4973646;28;20431;-53
2022/01/13 11:22:07;;;;;;;32.83;18.00;;;;;;;;;;4974377;28;20482;-53
2022/01/13 11:24:33;;;;;;;32.60;19.07;;;;;;;;;;4974097;28;20496;-53
2022/01/13 11:27:00;;;;;;;38.70;18.63;;;;;;;;;;4973445;28;20490;-53
2022/01/13 11:29:26;;;;;;;41.97;20.10;;;;;;;;;;4973400;28;20429;-53
2022/01/13 11:31:52;;;;;;;37.17;21.00;;;;;;;;;;4974127;28;20466;-53
2022/01/13 11:34:18;;;;;;;37.70;18.47;;;;;;;;;;4973032;28;20523;-53
2022/01/13 11:36:45;;;;;;;35.60;19.13;;;;;;;;;;4973515;28;20413;-53
2022/01/13 11:39:11;;;;;;;39.23;19.47;;;;;;;;;;4972722;28;20515;-54
2022/01/13 11:41:55;;;;;;;35.40;19.00;;;;;;;;;;4973377;28;20460;-53
2022/01/13 11:44:22;;;;;;;32.87;17.87;;;;;;;;;;4973234;28;20459;-52
2022/01/13 11:46:49;;;;;;;37.50;19.70;;;;;;;;;;4973806;28;20484;-53
2022/01/13 11:49:25;;;;;;;35.77;18.70;;;;;;;;;;4976438;28;20424;-52
2022/01/13 11:52:10;;;;;;;31.50;17.67;;;;;;;;;;4977116;28;20403;-53
2022/01/13 11:54:37;;;;;;;34.77;19.13;;;;;;;;;;4977193;28;20412;-52
2022/01/13 11:57:09;;;;;;;35.33;18.67;;;;;;;;;;4976558;28;20458;-53
2022/01/13 11:59:35;;;;;;;36.47;18.50;;;;;;;;;;4975067;28;20828;-54
2022/01/13 12:02:36;;;;;;;36.17;19.13;;;;;;;;;;4976869;28;20388;-53
2022/01/13 12:05:09;;;;;;;34.77;17.47;;;;;;;;;;4955142;29;20478;-54
2022/01/13 12:07:36;;;;;;;33.93;17.60;;;;;;;;;;4973467;28;20500;-53
2022/01/13 12:10:03;;;;;;;28.80;16.10;;;;;;;;;;4976613;28;20976;-53
2022/01/13 12:12:31;;;;;;;33.77;16.33;;;;;;;;;;4977126;28;20432;-53
2022/01/13 12:15:16;;;;;;;30.83;16.60;;;;;;;;;;4977269;28;20387;-53
2022/01/13 12:17:58;;;;;;;27.73;15.83;;;;;;;;;;4977191;28;20401;-52
2022/01/13 12:20:30;;;;;;;39.33;17.13;;;;;;;;;;4977609;28;20407;-51
2022/01/13 12:23:14;;;;;;;31.40;17.03;;;;;;;;;;4976993;28;20405;-53
2022/01/13 12:25:40;;;;;;;31.57;16.93;;;;;;;;;;4975251;28;20493;-53
2022/01/13 12:28:14;;;;;;;34.17;16.90;;;;;;;;;;4976155;28;20404;-53
2022/01/13 12:30:41;;;;;;;31.10;14.80;;;;;;;;;;4975767;28;20942;-53
2022/01/13 12:33:08;;;;;;;31.30;15.57;;;;;;;;;;4976865;28;20408;-53
2022/01/13 12:35:34;;;;;;;30.90;15.67;;;;;;;;;;4982394;28;20818;-52
2022/01/13 12:38:05;;;;;;;26.03;15.73;;;;;;;;;;4979465;28;20427;-50
2022/01/13 12:40:42;;;;;;;29.47;16.70;;;;;;;;;;4973189;28;20424;-50
2022/01/13 12:46:08;;;;;;;36.40;15.90;;;;;;;;;;4976230;28;21180;-50
2022/01/13 12:48:34;;;;;;;32.00;15.97;;;;;;;;;;4971563;28;20923;-51
2022/01/13 12:51:01;;;;;;;31.23;15.77;;;;;;;;;;4964521;28;20405;-52
2022/01/13 12:53:32;;;;;;;27.60;14.87;;;;;;;;;;4967378;28;20412;-51
2022/01/13 12:56:01;;;;;;;29.47;14.87;;;;;;;;;;4967865;28;20444;-51
2022/01/13 12:58:28;;;;;;;27.90;14.33;;;;;;;;;;4965691;28;20424;-51
2022/01/13 13:00:58;;;;;;;27.83;13.90;;;;;;;;;;4959321;28;20908;-51
2022/01/13 13:03:24;;;;;;;33.90;15.73;;;;;;;;;;4956497;29;20399;-51
2022/01/13 13:05:51;;;;;;;31.83;14.80;;;;;;;;;;4956646;29;20465;-51
2022/01/13 13:08:22;;;;;;;31.30;15.50;;;;;;;;;;4954861;28;20501;-52
2022/01/13 13:10:49;;;;;;;25.60;14.43;;;;;;;;;;4956451;29;20402;-50
2022/01/13 13:13:17;;;;;;;25.77;12.90;;;;;;;;;;4959698;28;20435;-50
2022/01/13 13:16:00;;;;;;;22.20;13.10;;;;;;;;;;4978062;28;20536;-50
2022/01/13 13:18:28;;;;;;;25.07;14.57;;;;;;;;;;4987426;28;20425;-50
2022/01/13 13:20:54;;;;;;;26.37;14.03;;;;;;;;;;4995537;28;20471;-50
2022/01/13 13:23:21;;;;;;;27.03;14.30;;;;;;;;;;4995410;28;20408;-50
2022/01/13 13:25:53;;;;;;;29.20;12.53;;;;;;;;;;4990848;28;20547;-51
2022/01/13 13:28:33;;;;;;;25.50;13.00;;;;;;;;;;4975032;28;20427;-51
2022/01/13 13:31:00;;;;;;;30.03;14.27;;;;;;;;;;4976127;28;20821;-50
2022/01/13 13:33:30;;;;;;;26.03;14.20;;;;;;;;;;4976045;28;20403;-51
2022/01/13 13:36:00;;;;;;;27.83;12.60;;;;;;;;;;4975405;28;20410;-50
2022/01/13 13:38:26;;;;;;;23.53;13.10;;;;;;;;;;4973117;28;20504;-50
2022/01/13 13:40:52;;;;;;;24.53;13.20;;;;;;;;;;4973667;28;20880;-50
2022/01/13 13:43:18;;;;;;;22.87;13.07;;;;;;;;;;4973828;28;20417;-52
2022/01/13 13:45:44;;;;;;;30.57;14.00;;;;;;;;;;4973722;28;20497;-50
2022/01/13 13:48:10;;;;;;;27.07;13.47;;;;;;;;;;4973072;28;20495;-51
2022/01/13 13:50:36;;;;;;;28.13;13.80;;;;;;;;;;4973796;28;20399;-52
2022/01/13 13:53:05;;;;;;;28.30;14.47;;;;;;;;;;4975179;28;20855;-51
2022/01/13 13:55:32;;;;;;;31.60;14.37;;;;;;;;;;4974668;28;20426;-50
2022/01/13 13:57:58;;;;;;;26.87;15.07;;;;;;;;;;4974573;28;20424;-53
2022/01/13 14:00:28;;;;;;;25.60;13.97;;;;;;;;;;4974845;28;20416;-50
2022/01/13 14:02:55;;;;;;;26.43;14.70;;;;;;;;;;4974689;28;20840;-52
2022/01/13 14:05:26;;;;;;;28.03;14.63;;;;;;;;;;4975057;28;20459;-51
2022/01/13 14:07:52;;;;;;;32.43;15.23;;;;;;;;;;4974733;28;20858;-51
2022/01/13 14:10:21;;;;;;;30.47;15.57;;;;;;;;;;4973324;28;20499;-50
2022/01/13 14:12:55;;;;;;;23.63;14.07;;;;;;;;;;4972972;28;20432;-51
2022/01/13 14:15:30;;;;;;;27.80;15.07;;;;;;;;;;4974579;28;20502;-51
2022/01/13 14:17:57;;;;;;;32.43;15.53;;;;;;;;;;4973725;28;20416;-53
2022/01/13 14:20:25;;;;;;;32.30;17.03;;;;;;;;;;4974182;28;20432;-51
2022/01/13 14:22:54;;;;;;;35.10;16.03;;;;;;;;;;4974292;28;20419;-51
2022/01/13 14:25:20;;;;;;;35.03;14.90;;;;;;;;;;4973760;28;20842;-50
2022/01/13 14:27:50;;;;;;;30.87;13.93;;;;;;;;;;4973870;28;20965;-51
2022/01/13 14:30:24;;;;;;;27.80;15.93;;;;;;;;;;4972592;28;20459;-50
2022/01/13 14:32:50;;;;;;;30.93;15.57;;;;;;;;;;4974123;28;20397;-51
2022/01/13 14:35:27;;;;;;;27.17;15.40;;;;;;;;;;4973934;28;20411;-50
2022/01/13 14:37:54;;;;;;;33.23;16.37;;;;;;;;;;4973919;28;20399;-52
2022/01/13 14:40:21;;;;;;;36.10;15.17;;;;;;;;;;4973617;28;20425;-51
2022/01/13 14:42:48;;;;;;;30.20;16.17;;;;;;;;;;4973921;28;20409;-50
2022/01/13 14:45:17;;;;;;;33.77;15.00;;;;;;;;;;4973569;28;20465;-50
2022/01/13 14:47:43;;;;;;;37.20;15.53;;;;;;;;;;4973752;28;20398;-50